sensor_id;sensor_type;location;lat;lon;timestamp;pressure;altitude;pressure_sealevel;temperature;humidity
13348;BME280;6743;49.934;9.138;2023-03-18T00:01:18;99966.16;;;9.60;100.00
13348;BME280;6743;49.934;9.138;2023-03-18T00:03:47;99952.06;;;9.43;100.00
13348;BME280;6743;49.934;9.138;2023-03-18T00:06:15;99972.56;;;9.49;100.00
13348;BME280;6743;49.934;9.138;2023-03-18T00:08:43;99982.50;;;9.55;100.00
13348;BME280;6743;49.934;9.138;2023-03-18T00:11:11;99946.75;;;9.27;100.00
13348;BME280;6743;49.934;9.138;2023-03-18T00:13:39;99980.50;;;9.41;100.00
13348;BME280;6743;49.934;9.138;2023-03-18T00:16:07;99979.03;;;9.38;100.00
13348;BME280;6743;49.934;9.138;2023-03-18T00:18:34;99962.31;;;9.30;100.00
13348;BME280;6743;49.934;9.138;2023-03-18T00:21:01;99965.28;;;9.35;100.00
13348;BME280;6743;49.934;9.138;2023-03-18T00:23:28;99989.12;;;9.43;100.00
13348;BME280;6743;49.934;9.138;2023-03-18T00:25:56;99991.47;;;9.46;100.00
13348;BME280;6743;49.934;9.138;2023-03-18T00:28:25;100001.06;;;9.47;100.00
13348;BME280;6743;49.934;9.138;2023-03-18T00:30:52;99984.81;;;9.34;100.00
13348;BME280;6743;49.934;9.138;2023-03-18T00:33:19;99963.44;;;9.27;100.00
13348;BME280;6743;49.934;9.138;2023-03-18T00:35:46;99979.50;;;9.34;100.00
13348;BME280;6743;49.934;9.138;2023-03-18T00:38:14;99971.75;;;9.32;100.00
13348;BME280;6743;49.934;9.138;2023-03-18T00:40:45;99993.44;;;9.44;100.00
13348;BME280;6743;49.934;9.138;2023-03-18T00:43:19;100008.19;;;9.46;100.00
13348;BME280;6743;49.934;9.138;2023-03-18T00:45:50;100006.84;;;9.42;100.00
13348;BME280;6743;49.934;9.138;2023-03-18T00:48:17;100000.56;;;9.43;100.00
13348;BME280;6743;49.934;9.138;2023-03-18T00:50:43;99993.91;;;9.47;100.00
13348;BME280;6743;49.934;9.138;2023-03-18T00:53:13;99991.63;;;9.44;100.00
13348;BME280;6743;49.934;9.138;2023-03-18T00:55:40;99983.34;;;9.39;100.00
13348;BME280;6743;49.934;9.138;2023-03-18T00:58:06;100012.66;;;9.54;100.00
13348;BME280;6743;49.934;9.138;2023-03-18T01:00:33;99990.28;;;9.40;100.00
13348;BME280;6743;49.934;9.138;2023-03-18T01:03:00;99994.09;;;9.46;100.00
13348;BME280;6743;49.934;9.138;2023-03-18T01:05:26;100005.50;;;9.55;100.00
13348;BME280;6743;49.934;9.138;2023-03-18T01:07:52;100013.47;;;9.55;100.00
13348;BME280;6743;49.934;9.138;2023-03-18T01:10:19;100018.75;;;9.55;100.00
13348;BME280;6743;49.934;9.138;2023-03-18T01:12:45;100011.81;;;9.45;100.00
13348;BME280;6743;49.934;9.138;2023-03-18T01:15:16;100023.87;;;9.48;100.00
13348;BME280;6743;49.934;9.138;2023-03-18T01:17:42;100029.00;;;9.49;100.00
13348;BME280;6743;49.934;9.138;2023-03-18T01:20:15;100008.50;;;9.43;100.00
13348;BME280;6743;49.934;9.138;2023-03-18T01:22:42;100000.53;;;9.35;100.00
13348;BME280;6743;49.934;9.138;2023-03-18T01:25:13;100025.88;;;9.46;100.00
13348;BME280;6743;49.934;9.138;2023-03-18T01:27:48;100019.75;;;9.45;100.00
13348;BME280;6743;49.934;9.138;2023-03-18T01:30:14;100026.72;;;9.46;100.00
13348;BME280;6743;49.934;9.138;2023-03-18T01:32:48;100028.69;;;9.44;100.00
13348;BME280;6743;49.934;9.138;2023-03-18T01:35:17;100020.22;;;9.41;100.00
13348;BME280;6743;49.934;9.138;2023-03-18T01:37:44;100030.19;;;9.47;100.00
13348;BME280;6743;49.934;9.138;2023-03-18T01:40:15;100026.72;;;9.46;100.00
13348;BME280;6743;49.934;9.138;2023-03-18T01:42:42;100025.88;;;9.46;100.00
13348;BME280;6743;49.934;9.138;2023-03-18T01:45:18;100018.94;;;9.45;100.00
13348;BME280;6743;49.934;9.138;2023-03-18T01:47:49;100016.28;;;9.45;100.00
13348;BME280;6743;49.934;9.138;2023-03-18T01:50:27;100010.31;;;9.43;100.00
13348;BME280;6743;49.934;9.138;2023-03-18T01:52:59;100009.31;;;9.44;100.00
13348;BME280;6743;49.934;9.138;2023-03-18T01:55:28;99981.97;;;9.27;100.00
13348;BME280;6743;49.934;9.138;2023-03-18T01:57:56;100001.84;;;9.31;100.00
13348;BME280;6743;49.934;9.138;2023-03-18T02:00:42;100011.62;;;9.39;100.00
13348;BME280;6743;49.934;9.138;2023-03-18T02:03:10;100013.47;;;9.38;100.00
13348;BME280;6743;49.934;9.138;2023-03-18T02:05:39;100012.44;;;9.31;100.00
13348;BME280;6743;49.934;9.138;2023-03-18T02:08:07;100006.63;;;9.28;100.00
13348;BME280;6743;49.934;9.138;2023-03-18T02:10:34;100029.81;;;9.34;100.00
13348;BME280;6743;49.934;9.138;2023-03-18T02:13:05;100014.75;;;9.18;100.00
13348;BME280;6743;49.934;9.138;2023-03-18T02:15:34;100034.44;;;9.24;100.00
13348;BME280;6743;49.934;9.138;2023-03-18T02:18:16;100026.81;;;9.13;100.00
13348;BME280;6743;49.934;9.138;2023-03-18T02:20:56;100031.59;;;9.17;100.00
13348;BME280;6743;49.934;9.138;2023-03-18T02:23:30;100031.75;;;9.16;100.00
13348;BME280;6743;49.934;9.138;2023-03-18T02:26:06;100031.09;;;9.14;100.00
13348;BME280;6743;49.934;9.138;2023-03-18T02:28:36;100034.75;;;9.13;100.00
13348;BME280;6743;49.934;9.138;2023-03-18T02:31:07;100038.38;;;9.12;100.00
13348;BME280;6743;49.934;9.138;2023-03-18T02:33:36;100028.44;;;9.05;100.00
13348;BME280;6743;49.934;9.138;2023-03-18T02:36:08;100024.13;;;9.04;100.00
13348;BME280;6743;49.934;9.138;2023-03-18T02:38:39;100034.06;;;9.11;100.00
13348;BME280;6743;49.934;9.138;2023-03-18T02:41:29;100019.47;;;9.06;100.00
13348;BME280;6743;49.934;9.138;2023-03-18T02:43:57;100033.72;;;9.14;100.00
13348;BME280;6743;49.934;9.138;2023-03-18T02:46:30;100038.03;;;9.15;100.00
13348;BME280;6743;49.934;9.138;2023-03-18T02:48:58;100027.44;;;9.15;100.00
13348;BME280;6743;49.934;9.138;2023-03-18T02:51:25;100022.00;;;9.16;100.00
13348;BME280;6743;49.934;9.138;2023-03-18T02:53:55;100022.00;;;9.16;100.00
13348;BME280;6743;49.934;9.138;2023-03-18T02:56:22;100026.31;;;9.17;100.00
13348;BME280;6743;49.934;9.138;2023-03-18T02:58:49;100012.06;;;9.10;100.00
13348;BME280;6743;49.934;9.138;2023-03-18T03:01:16;100006.59;;;9.03;100.00
13348;BME280;6743;49.934;9.138;2023-03-18T03:03:43;100027.97;;;9.18;100.00
13348;BME280;6743;49.934;9.138;2023-03-18T03:06:10;100034.94;;;9.19;100.00
13348;BME280;6743;49.934;9.138;2023-03-18T03:08:36;100030.78;;;9.17;100.00
13348;BME280;6743;49.934;9.138;2023-03-18T03:11:03;100019.47;;;9.06;100.00
13348;BME280;6743;49.934;9.138;2023-03-18T03:13:29;100017.84;;;9.05;100.00
13348;BME280;6743;49.934;9.138;2023-03-18T03:15:56;100042.50;;;9.14;100.00
13348;BME280;6743;49.934;9.138;2023-03-18T03:18:22;100042.50;;;9.14;100.00
13348;BME280;6743;49.934;9.138;2023-03-18T03:20:49;100034.75;;;9.13;100.00
13348;BME280;6743;49.934;9.138;2023-03-18T03:23:15;100040.84;;;9.13;100.00
13348;BME280;6743;49.934;9.138;2023-03-18T03:25:42;100050.63;;;9.13;100.00
13348;BME280;6743;49.934;9.138;2023-03-18T03:28:09;100052.59;;;9.11;100.00
13348;BME280;6743;49.934;9.138;2023-03-18T03:30:36;100034.03;;;9.02;100.00
13348;BME280;6743;49.934;9.138;2023-03-18T03:33:03;100052.44;;;9.12;100.00
13348;BME280;6743;49.934;9.138;2023-03-18T03:35:31;100056.91;;;9.12;100.00
13348;BME280;6743;49.934;9.138;2023-03-18T03:37:58;100060.69;;;9.09;100.00
13348;BME280;6743;49.934;9.138;2023-03-18T03:40:24;100049.91;;;9.02;100.00
13348;BME280;6743;49.934;9.138;2023-03-18T03:43:26;100057.87;;;9.11;100.00
13348;BME280;6743;49.934;9.138;2023-03-18T03:45:53;100054.56;;;9.08;100.00
13348;BME280;6743;49.934;9.138;2023-03-18T03:48:19;100059.69;;;9.10;100.00
13348;BME280;6743;49.934;9.138;2023-03-18T03:50:45;100037.16;;;8.98;100.00
13348;BME280;6743;49.934;9.138;2023-03-18T03:53:12;100048.25;;;9.01;100.00
13348;BME280;6743;49.934;9.138;2023-03-18T03:55:38;100051.72;;;9.02;100.00
13348;BME280;6743;49.934;9.138;2023-03-18T03:58:04;100070.28;;;9.10;100.00
13348;BME280;6743;49.934;9.138;2023-03-18T04:00:30;100065.81;;;9.11;100.00
13348;BME280;6743;49.934;9.138;2023-03-18T04:02:57;100069.28;;;9.11;100.00
13348;BME280;6743;49.934;9.138;2023-03-18T04:05:24;100055.09;;;9.12;100.00
13348;BME280;6743;49.934;9.138;2023-03-18T04:07:51;100055.91;;;9.13;100.00
13348;BME280;6743;49.934;9.138;2023-03-18T04:10:19;100055.38;;;9.09;100.00
13348;BME280;6743;49.934;9.138;2023-03-18T04:12:47;100052.09;;;9.15;100.00
13348;BME280;6743;49.934;9.138;2023-03-18T04:15:15;100046.66;;;9.17;100.00
13348;BME280;6743;49.934;9.138;2023-03-18T04:17:41;100038.72;;;9.17;100.00
13348;BME280;6743;49.934;9.138;2023-03-18T04:20:09;100036.91;;;9.17;100.00
13348;BME280;6743;49.934;9.138;2023-03-18T04:22:35;100034.25;;;9.17;100.00
13348;BME280;6743;49.934;9.138;2023-03-18T04:25:03;100018.34;;;9.09;100.00
13348;BME280;6743;49.934;9.138;2023-03-18T04:27:29;100029.78;;;9.18;100.00
13348;BME280;6743;49.934;9.138;2023-03-18T04:29:56;100022.66;;;9.10;100.00
13348;BME280;6743;49.934;9.138;2023-03-18T04:32:23;100031.91;;;9.14;100.00
13348;BME280;6743;49.934;9.138;2023-03-18T04:34:49;100046.31;;;9.12;100.00
13348;BME280;6743;49.934;9.138;2023-03-18T04:37:15;100044.94;;;8.99;100.00
13348;BME280;6743;49.934;9.138;2023-03-18T04:39:44;100053.19;;;8.96;100.00
13348;BME280;6743;49.934;9.138;2023-03-18T04:42:11;100062.16;;;9.03;100.00
13348;BME280;6743;49.934;9.138;2023-03-18T04:44:37;100066.78;;;9.01;100.00
13348;BME280;6743;49.934;9.138;2023-03-18T04:47:04;100014.91;;;8.75;100.00
13348;BME280;6743;49.934;9.138;2023-03-18T04:49:30;100047.03;;;8.88;100.00
13348;BME280;6743;49.934;9.138;2023-03-18T04:51:56;100064.75;;;8.95;100.00
13348;BME280;6743;49.934;9.138;2023-03-18T04:54:22;100020.31;;;8.65;100.00
13348;BME280;6743;49.934;9.138;2023-03-18T04:56:48;100071.37;;;8.91;100.00
13348;BME280;6743;49.934;9.138;2023-03-18T04:59:14;100066.91;;;8.92;100.00
13348;BME280;6743;49.934;9.138;2023-03-18T05:01:41;100059.12;;;8.90;100.00
13348;BME280;6743;49.934;9.138;2023-03-18T05:04:07;100065.06;;;8.92;100.00
13348;BME280;6743;49.934;9.138;2023-03-18T05:06:33;100055.31;;;8.93;100.00
13348;BME280;6743;49.934;9.138;2023-03-18T05:08:59;100052.84;;;8.91;100.00
13348;BME280;6743;49.934;9.138;2023-03-18T05:11:26;100020.19;;;8.75;100.00
13348;BME280;6743;49.934;9.138;2023-03-18T05:13:52;100047.22;;;8.94;100.00
13348;BME280;6743;49.934;9.138;2023-03-18T05:16:19;100040.13;;;8.95;100.00
13348;BME280;6743;49.934;9.138;2023-03-18T05:18:45;99997.03;;;8.68;100.00
13348;BME280;6743;49.934;9.138;2023-03-18T05:21:11;100045.25;;;8.96;100.00
13348;BME280;6743;49.934;9.138;2023-03-18T05:23:37;100052.53;;;8.94;100.00
13348;BME280;6743;49.934;9.138;2023-03-18T05:26:04;100059.62;;;8.94;100.00
13348;BME280;6743;49.934;9.138;2023-03-18T05:28:30;100058.97;;;8.92;100.00
13348;BME280;6743;49.934;9.138;2023-03-18T05:30:57;100064.56;;;8.89;100.00
13348;BME280;6743;49.934;9.138;2023-03-18T05:33:23;100045.34;;;8.79;100.00
13348;BME280;6743;49.934;9.138;2023-03-18T05:35:50;100056.09;;;8.77;100.00
13348;BME280;6743;49.934;9.138;2023-03-18T05:38:17;100065.06;;;8.84;100.00
13348;BME280;6743;49.934;9.138;2023-03-18T05:40:43;100067.16;;;8.81;100.00
13348;BME280;6743;49.934;9.138;2023-03-18T05:43:09;100066.34;;;8.80;100.00
13348;BME280;6743;49.934;9.138;2023-03-18T05:45:35;99992.72;;;8.34;100.00
13348;BME280;6743;49.934;9.138;2023-03-18T05:48:02;100072.94;;;8.76;100.00
13348;BME280;6743;49.934;9.138;2023-03-18T05:50:30;100075.88;;;8.73;100.00
13348;BME280;6743;49.934;9.138;2023-03-18T05:52:57;100081.50;;;8.70;100.00
13348;BME280;6743;49.934;9.138;2023-03-18T05:55:23;100064.72;;;8.53;100.00
13348;BME280;6743;49.934;9.138;2023-03-18T05:57:49;100074.66;;;8.59;100.00
13348;BME280;6743;49.934;9.138;2023-03-18T06:00:16;100052.75;;;8.41;100.00
13348;BME280;6743;49.934;9.138;2023-03-18T06:02:43;100046.63;;;8.41;100.00
13348;BME280;6743;49.934;9.138;2023-03-18T06:05:09;100075.00;;;8.56;100.00
13348;BME280;6743;49.934;9.138;2023-03-18T06:07:37;100082.75;;;8.58;100.00
13348;BME280;6743;49.934;9.138;2023-03-18T06:10:04;100078.28;;;8.58;100.00
13348;BME280;6743;49.934;9.138;2023-03-18T06:12:30;100079.94;;;8.59;100.00
13348;BME280;6743;49.934;9.138;2023-03-18T06:14:56;100060.06;;;8.47;100.00
13348;BME280;6743;49.934;9.138;2023-03-18T06:17:22;100030.72;;;8.33;100.00
13348;BME280;6743;49.934;9.138;2023-03-18T06:19:48;100067.22;;;8.55;100.00
13348;BME280;6743;49.934;9.138;2023-03-18T06:22:15;100088.75;;;8.68;100.00
13348;BME280;6743;49.934;9.138;2023-03-18T06:24:42;100105.13;;;8.72;100.00
13348;BME280;6743;49.934;9.138;2023-03-18T06:27:08;100098.56;;;8.76;100.00
13348;BME280;6743;49.934;9.138;2023-03-18T06:29:35;100084.81;;;8.72;100.00
13348;BME280;6743;49.934;9.138;2023-03-18T06:32:02;100087.16;;;8.75;100.00
13348;BME280;6743;49.934;9.138;2023-03-18T06:34:28;100074.41;;;8.71;100.00
13348;BME280;6743;49.934;9.138;2023-03-18T06:36:54;100088.19;;;8.82;100.00
13348;BME280;6743;49.934;9.138;2023-03-18T06:39:21;100082.53;;;8.77;100.00
13348;BME280;6743;49.934;9.138;2023-03-18T06:41:48;100107.09;;;8.95;100.00
13348;BME280;6743;49.934;9.138;2023-03-18T06:44:14;100110.25;;;8.99;100.00
13348;BME280;6743;49.934;9.138;2023-03-18T06:46:40;100108.28;;;9.01;100.00
13348;BME280;6743;49.934;9.138;2023-03-18T06:49:06;100099.16;;;8.95;100.00
13348;BME280;6743;49.934;9.138;2023-03-18T06:51:32;100100.97;;;8.95;100.00
13348;BME280;6743;49.934;9.138;2023-03-18T06:53:58;100112.09;;;9.06;100.00
13348;BME280;6743;49.934;9.138;2023-03-18T06:56:25;100101.50;;;9.06;100.00
13348;BME280;6743;49.934;9.138;2023-03-18T06:58:51;100106.66;;;9.08;100.00
13348;BME280;6743;49.934;9.138;2023-03-18T07:01:18;100102.03;;;9.10;100.00
13348;BME280;6743;49.934;9.138;2023-03-18T07:03:45;100104.53;;;9.12;100.00
13348;BME280;6743;49.934;9.138;2023-03-18T07:06:11;100103.38;;;9.14;100.00
13348;BME280;6743;49.934;9.138;2023-03-18T07:08:37;100099.59;;;9.17;100.00
13348;BME280;6743;49.934;9.138;2023-03-18T07:11:04;100108.03;;;9.20;100.00
13348;BME280;6743;49.934;9.138;2023-03-18T07:13:31;100106.88;;;9.23;100.00
13348;BME280;6743;49.934;9.138;2023-03-18T07:15:58;100105.37;;;9.20;100.00
13348;BME280;6743;49.934;9.138;2023-03-18T07:18:26;100114.19;;;9.29;100.00
13348;BME280;6743;49.934;9.138;2023-03-18T07:20:51;100103.25;;;9.24;100.00
13348;BME280;6743;49.934;9.138;2023-03-18T07:23:17;100117.16;;;9.34;100.00
13348;BME280;6743;49.934;9.138;2023-03-18T07:25:44;100121.31;;;9.36;100.00
13348;BME280;6743;49.934;9.138;2023-03-18T07:28:10;100122.00;;;9.38;100.00
13348;BME280;6743;49.934;9.138;2023-03-18T07:30:37;100105.09;;;9.31;100.00
13348;BME280;6743;49.934;9.138;2023-03-18T07:33:03;100109.59;;;9.39;100.00
13348;BME280;6743;49.934;9.138;2023-03-18T07:35:30;100121.03;;;9.47;100.00
13348;BME280;6743;49.934;9.138;2023-03-18T07:37:56;100126.19;;;9.57;100.00
13348;BME280;6743;49.934;9.138;2023-03-18T07:40:23;100123.53;;;9.57;100.00
13348;BME280;6743;49.934;9.138;2023-03-18T07:42:49;100139.78;;;9.70;100.00
13348;BME280;6743;49.934;9.138;2023-03-18T07:45:16;100138.31;;;9.76;100.00
13348;BME280;6743;49.934;9.138;2023-03-18T07:47:42;100135.50;;;9.77;100.00
13348;BME280;6743;49.934;9.138;2023-03-18T07:50:10;100137.19;;;9.86;100.00
13348;BME280;6743;49.934;9.138;2023-03-18T07:52:36;100136.19;;;9.87;100.00
13348;BME280;6743;49.934;9.138;2023-03-18T07:55:03;100139.19;;;9.93;100.00
13348;BME280;6743;49.934;9.138;2023-03-18T07:57:29;100144.81;;;9.98;100.00
13348;BME280;6743;49.934;9.138;2023-03-18T07:59:56;100134.06;;;9.99;100.00
13348;BME280;6743;49.934;9.138;2023-03-18T08:02:22;100099.59;;;9.75;100.00
13348;BME280;6743;49.934;9.138;2023-03-18T08:04:48;100123.28;;;9.93;100.00
13348;BME280;6743;49.934;9.138;2023-03-18T08:07:14;100138.69;;;10.05;100.00
13348;BME280;6743;49.934;9.138;2023-03-18T08:09:41;100144.50;;;10.09;100.00
13348;BME280;6743;49.934;9.138;2023-03-18T08:12:08;100145.16;;;10.11;100.00
13348;BME280;6743;49.934;9.138;2023-03-18T08:14:34;100149.66;;;10.18;100.00
13348;BME280;6743;49.934;9.138;2023-03-18T08:17:00;100151.84;;;10.23;100.00
13348;BME280;6743;49.934;9.138;2023-03-18T08:19:26;100149.84;;;10.25;100.00
13348;BME280;6743;49.934;9.138;2023-03-18T08:21:52;100151.34;;;10.27;100.00
13348;BME280;6743;49.934;9.138;2023-03-18T08:24:19;100151.34;;;10.27;100.00
13348;BME280;6743;49.934;9.138;2023-03-18T08:26:45;100155.81;;;10.35;100.00
13348;BME280;6743;49.934;9.138;2023-03-18T08:29:12;100156.31;;;10.39;100.00
13348;BME280;6743;49.934;9.138;2023-03-18T08:31:38;100152.66;;;10.40;100.00
13348;BME280;6743;49.934;9.138;2023-03-18T08:34:04;100148.19;;;10.40;100.00
13348;BME280;6743;49.934;9.138;2023-03-18T08:36:30;100152.34;;;10.43;100.00
13348;BME280;6743;49.934;9.138;2023-03-18T08:38:56;100142.22;;;10.38;100.00
13348;BME280;6743;49.934;9.138;2023-03-18T08:41:23;100146.69;;;10.46;100.00
13348;BME280;6743;49.934;9.138;2023-03-18T08:43:50;100130.47;;;10.41;100.00
13348;BME280;6743;49.934;9.138;2023-03-18T08:46:16;100145.03;;;10.53;100.00
13348;BME280;6743;49.934;9.138;2023-03-18T08:48:43;100143.38;;;10.60;100.00
13348;BME280;6743;49.934;9.138;2023-03-18T08:51:09;100142.22;;;10.62;100.00
13348;BME280;6743;49.934;9.138;2023-03-18T08:53:35;100145.19;;;10.76;100.00
13348;BME280;6743;49.934;9.138;2023-03-18T08:56:01;100146.63;;;10.86;100.00
13348;BME280;6743;49.934;9.138;2023-03-18T08:58:28;100117.28;;;10.80;100.00
13348;BME280;6743;49.934;9.138;2023-03-18T09:00:55;100144.78;;;11.03;100.00
13348;BME280;6743;49.934;9.138;2023-03-18T09:03:21;100136.44;;;11.14;100.00
13348;BME280;6743;49.934;9.138;2023-03-18T09:05:48;100145.87;;;11.25;100.00
13348;BME280;6743;49.934;9.138;2023-03-18T09:08:14;100140.19;;;11.36;100.00
13348;BME280;6743;49.934;9.138;2023-03-18T09:10:40;100141.63;;;11.47;100.00
13348;BME280;6743;49.934;9.138;2023-03-18T09:13:06;100136.28;;;11.55;100.00
13348;BME280;6743;49.934;9.138;2023-03-18T09:15:34;100145.03;;;11.63;100.00
13348;BME280;6743;49.934;9.138;2023-03-18T09:18:00;100146.66;;;11.72;100.00
13348;BME280;6743;49.934;9.138;2023-03-18T09:20:27;100145.16;;;11.78;100.00
13348;BME280;6743;49.934;9.138;2023-03-18T09:22:53;100143.59;;;11.83;100.00
13348;BME280;6743;49.934;9.138;2023-03-18T09:25:19;100147.22;;;11.91;100.00
13348;BME280;6743;49.934;9.138;2023-03-18T09:27:45;100151.31;;;12.01;100.00
13348;BME280;6743;49.934;9.138;2023-03-18T09:30:12;100157.75;;;12.07;100.00
13348;BME280;6743;49.934;9.138;2023-03-18T09:32:39;100149.06;;;12.13;100.00
13348;BME280;6743;49.934;9.138;2023-03-18T09:35:06;100148.53;;;12.17;100.00
13348;BME280;6743;49.934;9.138;2023-03-18T09:37:34;100143.81;;;12.28;100.00
13348;BME280;6743;49.934;9.138;2023-03-18T09:40:00;100152.34;;;12.38;100.00
13348;BME280;6743;49.934;9.138;2023-03-18T09:42:37;100141.84;;;12.44;100.00
13348;BME280;6743;49.934;9.138;2023-03-18T09:45:11;100148.75;;;12.53;100.00
13348;BME280;6743;49.934;9.138;2023-03-18T09:47:49;100137.69;;;12.65;100.00
13348;BME280;6743;49.934;9.138;2023-03-18T09:50:26;100136.13;;;12.70;100.00
13348;BME280;6743;49.934;9.138;2023-03-18T09:53:04;100139.22;;;12.74;100.00
13348;BME280;6743;49.934;9.138;2023-03-18T09:55:38;100141.81;;;12.82;100.00
13348;BME280;6743;49.934;9.138;2023-03-18T09:58:09;100120.31;;;12.69;100.00
13348;BME280;6743;49.934;9.138;2023-03-18T10:00:40;100141.47;;;12.85;100.00
13348;BME280;6743;49.934;9.138;2023-03-18T10:03:11;100146.44;;;13.02;100.00
13348;BME280;6743;49.934;9.138;2023-03-18T10:05:46;100144.41;;;13.05;100.00
13348;BME280;6743;49.934;9.138;2023-03-18T10:08:18;100138.03;;;13.14;100.00
13348;BME280;6743;49.934;9.138;2023-03-18T10:10:46;100144.63;;;13.18;100.00
13348;BME280;6743;49.934;9.138;2023-03-18T10:13:16;100138.91;;;13.21;100.00
13348;BME280;6743;49.934;9.138;2023-03-18T10:15:47;100142.31;;;13.29;100.00
13348;BME280;6743;49.934;9.138;2023-03-18T10:18:19;100138.66;;;13.30;100.00
13348;BME280;6743;49.934;9.138;2023-03-18T10:20:54;100151.12;;;13.30;100.00
13348;BME280;6743;49.934;9.138;2023-03-18T10:23:30;100137.81;;;13.30;100.00
13348;BME280;6743;49.934;9.138;2023-03-18T10:25:58;100138.66;;;13.30;100.00
13348;BME280;6743;49.934;9.138;2023-03-18T10:28:35;100134.88;;;13.39;100.00
13348;BME280;6743;49.934;9.138;2023-03-18T10:31:14;100128.16;;;13.44;100.00
13348;BME280;6743;49.934;9.138;2023-03-18T10:33:47;100127.78;;;13.47;100.00
13348;BME280;6743;49.934;9.138;2023-03-18T10:36:18;100137.69;;;13.53;100.00
13348;BME280;6743;49.934;9.138;2023-03-18T10:38:48;100134.94;;;13.61;100.00
13348;BME280;6743;49.934;9.138;2023-03-18T10:41:20;100141.72;;;13.63;100.00
13348;BME280;6743;49.934;9.138;2023-03-18T10:43:48;100132.97;;;13.69;100.00
13348;BME280;6743;49.934;9.138;2023-03-18T10:46:17;100136.34;;;13.78;100.00
13348;BME280;6743;49.934;9.138;2023-03-18T10:48:47;100127.34;;;13.79;100.00
13348;BME280;6743;49.934;9.138;2023-03-18T10:51:18;100123.56;;;13.88;100.00
13348;BME280;6743;49.934;9.138;2023-03-18T10:53:53;100128.31;;;13.93;100.00
13348;BME280;6743;49.934;9.138;2023-03-18T10:56:21;100121.00;;;14.01;100.00
13348;BME280;6743;49.934;9.138;2023-03-18T10:58:48;100128.06;;;14.09;100.00
13348;BME280;6743;49.934;9.138;2023-03-18T11:01:16;100124.87;;;14.20;100.00
13348;BME280;6743;49.934;9.138;2023-03-18T11:03:46;100123.16;;;14.34;100.00
13348;BME280;6743;49.934;9.138;2023-03-18T11:06:16;100126.72;;;14.41;100.00
13348;BME280;6743;49.934;9.138;2023-03-18T11:08:46;100120.19;;;14.43;100.00
13348;BME280;6743;49.934;9.138;2023-03-18T11:11:21;100124.13;;;14.47;100.00
13348;BME280;6743;49.934;9.138;2023-03-18T11:13:49;100117.88;;;14.62;100.00
13348;BME280;6743;49.934;9.138;2023-03-18T11:16:23;100111.59;;;14.76;100.00
13348;BME280;6743;49.934;9.138;2023-03-18T11:18:51;100106.75;;;14.86;100.00
13348;BME280;6743;49.934;9.138;2023-03-18T11:21:17;100118.03;;;14.88;100.00
13348;BME280;6743;49.934;9.138;2023-03-18T11:23:50;100108.00;;;14.90;100.00
13348;BME280;6743;49.934;9.138;2023-03-18T11:26:42;100109.00;;;14.89;100.00
13348;BME280;6743;49.934;9.138;2023-03-18T11:29:11;100103.44;;;14.84;100.00
13348;BME280;6743;49.934;9.138;2023-03-18T11:31:47;100104.66;;;14.81;100.00
13348;BME280;6743;49.934;9.138;2023-03-18T11:34:16;100105.47;;;14.82;100.00
13348;BME280;6743;49.934;9.138;2023-03-18T11:36:51;100106.97;;;14.91;100.00
13348;BME280;6743;49.934;9.138;2023-03-18T11:39:17;100112.78;;;15.01;100.00
13348;BME280;6743;49.934;9.138;2023-03-18T11:41:44;100098.66;;;15.07;100.00
13348;BME280;6743;49.934;9.138;2023-03-18T11:44:15;100104.78;;;15.08;100.00
13348;BME280;6743;49.934;9.138;2023-03-18T11:46:44;100101.13;;;15.15;100.00
13348;BME280;6743;49.934;9.138;2023-03-18T11:49:15;100086.97;;;15.21;100.00
13348;BME280;6743;49.934;9.138;2023-03-18T11:51:45;100089.09;;;15.32;100.00
13348;BME280;6743;49.934;9.138;2023-03-18T11:54:27;100080.91;;;15.41;100.00
13348;BME280;6743;49.934;9.138;2023-03-18T11:57:01;100087.31;;;15.46;100.00
13348;BME280;6743;49.934;9.138;2023-03-18T11:59:39;100091.03;;;15.52;100.00
13348;BME280;6743;49.934;9.138;2023-03-18T12:02:29;100088.81;;;15.55;100.00
13348;BME280;6743;49.934;9.138;2023-03-18T12:05:20;100081.81;;;15.54;100.00
13348;BME280;6743;49.934;9.138;2023-03-18T12:08:02;100077.50;;;15.53;100.00
13348;BME280;6743;49.934;9.138;2023-03-18T12:10:36;100075.63;;;15.54;100.00
13348;BME280;6743;49.934;9.138;2023-03-18T12:13:26;100078.94;;;15.56;100.00
13348;BME280;6743;49.934;9.138;2023-03-18T12:16:02;100076.47;;;15.54;100.00
13348;BME280;6743;49.934;9.138;2023-03-18T12:18:43;100085.50;;;15.53;100.00
13348;BME280;6743;49.934;9.138;2023-03-18T12:24:18;100066.97;;;15.52;100.00
13348;BME280;6743;49.934;9.138;2023-03-18T12:26:50;100066.97;;;15.52;100.00
13348;BME280;6743;49.934;9.138;2023-03-18T12:29:46;100078.53;;;15.59;100.00
13348;BME280;6743;49.934;9.138;2023-03-18T12:32:23;100072.97;;;15.60;100.00
13348;BME280;6743;49.934;9.138;2023-03-18T12:34:59;100075.25;;;15.70;100.00
13348;BME280;6743;49.934;9.138;2023-03-18T12:37:36;100070.75;;;15.77;100.00
13348;BME280;6743;49.934;9.138;2023-03-18T12:40:30;100071.81;;;15.83;100.00
13348;BME280;6743;49.934;9.138;2023-03-18T12:43:25;100060.06;;;15.84;100.00
13348;BME280;6743;49.934;9.138;2023-03-18T12:45:58;100054.50;;;15.85;100.00
13348;BME280;6743;49.934;9.138;2023-03-18T12:48:29;100045.25;;;15.94;100.00
13348;BME280;6743;49.934;9.138;2023-03-18T12:51:00;100042.59;;;16.01;100.00
13348;BME280;6743;49.934;9.138;2023-03-18T12:53:33;100046.28;;;16.06;100.00
13348;BME280;6743;49.934;9.138;2023-03-18T12:56:02;100038.69;;;16.10;100.00
13348;BME280;6743;49.934;9.138;2023-03-18T12:58:31;100044.06;;;16.17;100.00
13348;BME280;6743;49.934;9.138;2023-03-18T13:01:05;100042.59;;;16.21;100.00
13348;BME280;6743;49.934;9.138;2023-03-18T13:03:35;100029.63;;;16.24;100.00
13348;BME280;6743;49.934;9.138;2023-03-18T13:06:04;100017.28;;;16.30;100.00
13348;BME280;6743;49.934;9.138;2023-03-18T13:08:53;100024.66;;;16.34;100.00
13348;BME280;6743;49.934;9.138;2023-03-18T13:11:55;100025.28;;;16.43;100.00